createdAt,value
2022-09-06T00:01:10.817Z,101528.88
2022-09-06T00:03:38.518Z,101523.84
2022-09-06T00:06:10.417Z,101506.38
2022-09-06T00:08:38.366Z,101510.81
2022-09-06T00:11:07.629Z,101504.47
2022-09-06T00:13:35.784Z,101507.47
2022-09-06T00:16:08.310Z,101495.72
2022-09-06T00:18:36.375Z,101496.28
2022-09-06T00:21:04.188Z,101491.78
2022-09-06T00:23:32.034Z,101490.75
2022-09-06T00:26:04.070Z,101489.59
2022-09-06T00:28:33.231Z,101492.03
2022-09-06T00:31:09.109Z,101486.00
2022-09-06T00:33:36.786Z,101494.72
2022-09-06T00:36:04.874Z,101492.66
2022-09-06T00:38:32.529Z,101495.38
2022-09-06T00:41:00.225Z,101512.47
2022-09-06T00:43:28.243Z,101516.97
2022-09-06T00:45:57.431Z,101515.34
2022-09-06T00:48:25.541Z,101517.78
2022-09-06T00:50:56.195Z,101517.19
2022-09-06T00:53:25.445Z,101517.06
2022-09-06T00:55:53.682Z,101525.00
2022-09-06T00:58:21.762Z,101524.75
2022-09-06T01:00:49.427Z,101528.22
2022-09-06T01:03:19.409Z,101483.56
2022-09-06T01:05:56.106Z,101506.06
2022-09-06T01:08:31.820Z,101493.19
2022-09-06T01:11:25.220Z,101490.69
2022-09-06T01:14:04.730Z,101498.66
2022-09-06T01:16:40.244Z,101499.56
2022-09-06T01:19:29.983Z,101495.66
2022-09-06T01:22:10.202Z,101509.41
2022-09-06T01:24:59.863Z,101498.72
2022-09-06T01:27:54.900Z,101505.16
2022-09-06T01:30:23.031Z,101492.72
2022-09-06T01:32:57.474Z,101486.25
2022-09-06T01:35:32.819Z,101480.97
2022-09-06T01:38:01.121Z,101480.59
2022-09-06T01:40:29.131Z,101469.81
2022-09-06T01:42:59.309Z,101473.69
2022-09-06T01:45:32.535Z,101479.72
2022-09-06T01:48:10.424Z,101469.09
2022-09-06T01:50:51.397Z,101416.59
2022-09-06T01:53:34.084Z,101422.50
2022-09-06T01:56:08.527Z,101408.41
2022-09-06T01:59:12.745Z,101424.28
2022-09-06T02:01:48.654Z,101410.59
2022-09-06T02:04:21.757Z,101408.69
2022-09-06T02:06:54.814Z,101398.22
2022-09-06T02:09:26.717Z,101376.09
2022-09-06T02:11:58.883Z,101375.81
2022-09-06T02:14:34.385Z,101352.50
2022-09-06T02:17:03.466Z,101341.28
2022-09-06T02:19:37.545Z,101348.78
2022-09-06T02:22:08.849Z,101353.41
2022-09-06T02:24:40.659Z,101341.34
2022-09-06T02:27:08.936Z,101349.94
2022-09-06T02:29:37.903Z,101349.50
2022-09-06T02:32:14.368Z,101349.88
2022-09-06T02:34:43.152Z,101355.44
2022-09-06T02:37:12.997Z,101361.94
2022-09-06T02:39:40.949Z,101357.44
2022-09-06T02:42:10.258Z,101342.06
2022-09-06T02:44:39.172Z,101348.44
2022-09-06T02:47:06.885Z,101351.34
2022-09-06T02:49:34.526Z,101351.09
2022-09-06T02:52:02.062Z,101344.28
2022-09-06T02:54:29.646Z,101361.13
2022-09-06T02:56:57.457Z,101368.47
2022-09-06T02:59:25.019Z,101372.13
2022-09-06T03:01:53.935Z,101369.94
2022-09-06T03:04:21.457Z,101367.72
2022-09-06T03:06:49.007Z,101371.38
2022-09-06T03:09:16.550Z,101372.41
2022-09-06T03:11:44.370Z,101373.59
2022-09-06T03:14:11.881Z,101381.91
2022-09-06T03:16:39.486Z,101379.94
2022-09-06T03:19:08.422Z,101382.34
2022-09-06T03:21:35.963Z,101384.06
2022-09-06T03:24:04.044Z,101387.53
2022-09-06T03:26:31.589Z,101385.09
2022-09-06T03:28:59.118Z,101386.34
2022-09-06T03:31:26.631Z,101390.22
2022-09-06T03:33:54.140Z,101394.91
2022-09-06T03:36:23.021Z,101363.03
2022-09-06T03:38:51.107Z,101381.41
2022-09-06T03:41:18.641Z,101387.13
2022-09-06T03:43:46.211Z,101386.78
2022-09-06T03:46:13.818Z,101392.72
2022-09-06T03:48:41.421Z,101387.84
2022-09-06T03:51:08.968Z,101397.41
2022-09-06T03:53:37.977Z,101392.31
2022-09-06T03:56:05.716Z,101396.44
2022-09-06T03:58:33.653Z,101391.38
2022-09-06T04:01:03.544Z,101392.25
2022-09-06T04:03:31.335Z,101401.78
2022-09-06T04:05:58.971Z,101404.13
2022-09-06T04:08:27.059Z,101412.44
2022-09-06T04:10:56.831Z,101420.59
2022-09-06T04:13:25.837Z,101426.63
2022-09-06T04:15:53.446Z,101437.50
2022-09-06T04:18:21.774Z,101426.97
2022-09-06T04:20:50.563Z,101427.97
2022-09-06T04:23:18.728Z,101432.06
2022-09-06T04:25:48.411Z,101435.31
2022-09-06T04:28:18.649Z,101434.50
2022-09-06T04:30:46.720Z,101438.97
2022-09-06T04:33:14.254Z,101426.31
2022-09-06T04:35:41.781Z,101424.84
2022-09-06T04:38:09.281Z,101442.53
2022-09-06T04:40:36.844Z,101454.06
2022-09-06T04:43:04.348Z,101446.53
2022-09-06T04:45:33.260Z,101450.47
2022-09-06T04:48:00.854Z,101449.63
2022-09-06T04:50:28.415Z,101453.44
2022-09-06T04:52:56.095Z,101449.03
2022-09-06T04:55:23.613Z,101452.69
2022-09-06T04:57:51.444Z,101453.31
2022-09-06T05:00:19.232Z,101456.53
2022-09-06T05:02:48.489Z,101456.16
2022-09-06T05:05:16.318Z,101461.22
2022-09-06T05:07:43.878Z,101465.09
2022-09-06T05:10:11.611Z,101461.69
2022-09-06T05:12:44.039Z,101438.16
2022-09-06T05:15:12.264Z,101458.81
2022-09-06T05:17:39.979Z,101452.72
2022-09-06T05:20:10.922Z,101453.66
2022-09-06T05:22:38.576Z,101452.28
2022-09-06T05:25:06.939Z,101453.09
2022-09-06T05:27:34.457Z,101462.03
2022-09-06T05:30:03.378Z,101452.03
2022-09-06T05:32:30.931Z,101447.34
2022-09-06T05:34:58.567Z,101442.88
2022-09-06T05:37:27.502Z,101439.59
2022-09-06T05:39:55.118Z,101432.28
2022-09-06T05:42:22.676Z,101437.69
2022-09-06T05:44:50.474Z,101424.47
2022-09-06T05:47:18.442Z,101437.53
2022-09-06T05:49:46.197Z,101442.31
2022-09-06T05:52:13.725Z,101442.59
2022-09-06T05:54:42.605Z,101440.28
2022-09-06T05:57:10.134Z,101433.78
2022-09-06T05:59:37.751Z,101432.47
2022-09-06T06:02:07.485Z,101429.34
2022-09-06T06:04:35.947Z,101435.06
2022-09-06T06:07:03.642Z,101441.22
2022-09-06T06:09:31.250Z,101416.22
2022-09-06T06:12:00.151Z,101439.56
2022-09-06T06:14:27.695Z,101438.28
2022-09-06T06:16:55.273Z,101444.72
2022-09-06T06:19:22.894Z,101444.38
2022-09-06T06:21:50.467Z,101443.88
2022-09-06T06:24:18.087Z,101439.84
2022-09-06T06:26:45.793Z,101439.31
2022-09-06T06:29:14.856Z,101419.28
2022-09-06T06:31:42.524Z,101433.53
2022-09-06T06:34:10.095Z,101436.63
2022-09-06T06:36:38.222Z,101434.19
2022-09-06T06:39:08.334Z,101379.53
2022-09-06T06:41:35.926Z,101431.28
2022-09-06T06:44:05.852Z,101437.97
2022-09-06T06:46:36.733Z,101391.72
2022-09-06T06:49:04.754Z,101441.53
2022-09-06T06:51:33.787Z,101420.78
2022-09-06T06:54:01.327Z,101429.44
2022-09-06T06:56:31.027Z,101429.19
2022-09-06T06:59:00.326Z,101426.28
2022-09-06T07:01:30.170Z,101421.88
2022-09-06T07:03:59.677Z,101415.28
2022-09-06T07:09:16.736Z,101422.00
2022-09-06T07:11:44.276Z,101416.84
2022-09-06T07:14:12.023Z,101407.31
2022-09-06T07:16:39.776Z,101402.34
2022-09-06T07:21:59.325Z,101406.22
2022-09-06T07:24:27.934Z,101406.28
2022-09-06T07:29:43.081Z,101406.75
2022-09-06T07:32:10.807Z,101412.91
2022-09-06T07:34:39.950Z,101412.69
2022-09-06T07:37:07.515Z,101410.72
2022-09-06T07:39:36.922Z,101401.34
2022-09-06T07:42:04.962Z,101393.63
2022-09-06T07:44:32.555Z,101412.28
2022-09-06T07:55:27.053Z,101417.84
2022-09-06T07:57:54.602Z,101419.53
2022-09-06T08:00:22.274Z,101405.47
2022-09-06T08:02:49.863Z,101423.59
2022-09-06T08:10:54.106Z,101408.72
2022-09-06T08:13:21.686Z,101349.66
2022-09-06T08:15:49.342Z,101402.25
2022-09-06T08:18:16.884Z,101396.31
2022-09-06T08:20:45.754Z,101393.59
2022-09-06T08:23:13.708Z,101389.09
2022-09-06T08:25:41.298Z,101382.47
2022-09-06T08:28:08.856Z,101388.78
2022-09-06T08:30:36.528Z,101393.38
2022-09-06T08:33:04.079Z,101392.66
2022-09-06T08:35:31.689Z,101392.19
2022-09-06T08:38:00.614Z,101387.03
2022-09-06T08:40:28.213Z,101388.75
2022-09-06T08:42:55.848Z,101389.00
2022-09-06T08:45:24.752Z,101390.75
2022-09-06T08:47:52.559Z,101389.97
2022-09-06T08:50:21.873Z,101398.16
2022-09-06T08:53:16.167Z,101384.22
2022-09-06T08:55:54.116Z,101374.31
2022-09-06T08:58:38.194Z,101384.19
2022-09-06T09:01:09.028Z,101360.34
2022-09-06T09:03:45.181Z,101384.13
2022-09-06T09:06:12.851Z,101381.03
2022-09-06T09:08:47.870Z,101379.63
2022-09-06T09:11:19.821Z,101379.25
2022-09-06T09:13:55.828Z,101374.81
2022-09-06T09:16:24.260Z,101364.03
2022-09-06T09:18:53.354Z,101373.59
2022-09-06T09:21:29.562Z,101369.72
2022-09-06T09:23:59.797Z,101364.78
2022-09-06T09:26:34.241Z,101368.13
2022-09-06T09:29:08.124Z,101369.88
2022-09-06T09:31:37.789Z,101364.28
2022-09-06T09:34:05.622Z,101369.63
2022-09-06T09:36:33.579Z,101372.22
2022-09-06T09:39:01.349Z,101378.69
2022-09-06T09:41:33.434Z,101383.25
2022-09-06T09:44:05.109Z,101377.59
2022-09-06T09:46:34.266Z,101378.69
2022-09-06T09:49:05.189Z,101382.03
2022-09-06T09:51:34.265Z,101376.78
2022-09-06T09:54:03.720Z,101372.59
2022-09-06T09:56:39.032Z,101384.84
2022-09-06T09:59:17.562Z,101378.53
2022-09-06T10:01:45.156Z,101364.03
2022-09-06T10:07:14.241Z,101372.38
2022-09-06T10:09:47.123Z,101356.13
2022-09-06T10:12:19.893Z,101369.81
2022-09-06T10:14:50.135Z,101367.56
2022-09-06T10:17:23.240Z,101366.47
2022-09-06T10:19:50.825Z,101368.69
2022-09-06T10:22:27.128Z,101374.06
2022-09-06T10:25:25.898Z,101366.16
2022-09-06T10:28:11.881Z,101374.97
2022-09-06T10:30:46.914Z,101374.53
2022-09-06T10:33:27.086Z,101379.59
2022-09-06T10:35:58.024Z,101392.88
2022-09-06T10:38:38.536Z,101387.41
2022-09-06T10:41:25.079Z,101392.69
2022-09-06T10:44:01.939Z,101385.91
2022-09-06T10:46:34.717Z,101383.13
2022-09-06T10:49:02.399Z,101380.75
2022-09-06T10:51:39.287Z,101381.38
2022-09-06T10:54:10.972Z,101383.88
2022-09-06T10:56:44.954Z,101387.78
2022-09-06T10:59:38.079Z,101398.50
2022-09-06T11:02:17.657Z,101406.00
2022-09-06T11:07:41.229Z,101397.50
2022-09-06T11:10:15.716Z,101392.34
2022-09-06T11:12:48.679Z,101407.16
2022-09-06T11:15:20.243Z,101401.84
2022-09-06T11:17:52.878Z,101409.75
2022-09-06T11:20:29.820Z,101413.44
2022-09-06T11:23:31.394Z,101415.47
2022-09-06T11:26:11.704Z,101417.38
2022-09-06T11:28:44.825Z,101426.06
2022-09-06T11:34:22.472Z,101415.91
2022-09-06T11:36:52.730Z,101416.41
2022-09-06T11:42:40.895Z,101424.09
2022-09-06T11:45:21.548Z,101424.47
2022-09-06T11:47:52.070Z,101429.81
2022-09-06T11:50:27.984Z,101421.97
2022-09-06T11:53:03.030Z,101435.34
2022-09-06T11:55:38.707Z,101432.47
2022-09-06T11:58:12.229Z,101428.53
2022-09-06T12:00:39.991Z,101380.88
2022-09-06T12:06:19.807Z,101419.78
2022-09-06T12:08:48.208Z,101433.44
2022-09-06T12:11:30.787Z,101434.03
2022-09-06T12:14:03.145Z,101428.81
2022-09-06T12:17:08.911Z,101434.00
2022-09-06T12:19:44.979Z,101429.59
2022-09-06T12:22:53.447Z,101414.69
2022-09-06T12:25:52.843Z,101418.91
2022-09-06T12:28:28.231Z,101415.16
2022-09-06T12:30:56.146Z,101422.34
2022-09-06T12:33:28.105Z,101416.84
2022-09-06T12:36:13.842Z,101393.75
2022-09-06T12:38:41.614Z,101396.25
2022-09-06T12:41:09.388Z,101406.13
2022-09-06T12:43:40.276Z,101404.00
2022-09-06T12:46:08.620Z,101390.94
2022-09-06T12:48:41.208Z,101403.31
2022-09-06T12:51:16.030Z,101406.59
2022-09-06T12:53:51.422Z,101411.81
2022-09-06T12:56:21.639Z,101406.41
2022-09-06T12:58:49.232Z,101390.81
2022-09-06T13:01:23.646Z,101393.31
2022-09-06T13:04:00.187Z,101386.75
2022-09-06T13:06:31.665Z,101381.34
2022-09-06T13:09:00.035Z,101384.00
2022-09-06T13:11:31.468Z,101379.81
2022-09-06T13:13:59.434Z,101374.00
2022-09-06T13:16:30.866Z,101358.84
2022-09-06T13:19:12.420Z,101370.03
2022-09-06T13:21:42.822Z,101364.22
2022-09-06T13:24:22.424Z,101363.00
2022-09-06T13:26:50.751Z,101358.69
2022-09-06T13:29:27.143Z,101347.44
2022-09-06T13:31:59.266Z,101336.72
2022-09-06T13:34:29.070Z,101326.84
2022-09-06T13:37:09.605Z,101331.50
2022-09-06T13:39:39.249Z,101338.47
2022-09-06T13:42:08.634Z,101340.03
2022-09-06T13:44:37.700Z,101328.34
2022-09-06T13:47:05.800Z,101318.38
2022-09-06T13:49:34.117Z,101329.81
2022-09-06T13:52:04.910Z,101321.78
2022-09-06T13:54:33.713Z,101328.97
2022-09-06T13:57:01.866Z,101338.00
2022-09-06T13:59:30.226Z,101329.88
2022-09-06T14:02:02.573Z,101327.03
2022-09-06T14:04:32.339Z,101334.72
2022-09-06T14:07:00.446Z,101335.63
2022-09-06T14:09:29.757Z,101336.22
2022-09-06T14:11:57.510Z,101344.44
2022-09-06T14:14:25.236Z,101352.47
2022-09-06T14:16:53.950Z,101352.34
2022-09-06T14:19:21.474Z,101333.94
2022-09-06T14:21:48.838Z,101343.63
2022-09-06T14:24:16.194Z,101353.97
2022-09-06T14:26:44.971Z,101346.84
2022-09-06T14:29:12.551Z,101359.06
2022-09-06T14:31:40.067Z,101356.28
2022-09-06T14:34:07.608Z,101357.47
2022-09-06T14:36:35.069Z,101353.72
2022-09-06T14:39:03.145Z,101354.72
2022-09-06T14:41:31.111Z,101347.69
2022-09-06T14:44:00.461Z,101355.97
2022-09-06T14:46:29.901Z,101360.16
2022-09-06T14:48:58.822Z,101338.59
2022-09-06T14:51:26.658Z,101332.03
2022-09-06T14:53:56.635Z,101326.16
2022-09-06T14:56:25.919Z,101321.25
2022-09-06T14:58:54.659Z,101320.69
2022-09-06T15:01:25.526Z,101317.38
2022-09-06T15:03:55.705Z,101324.41
2022-09-06T15:06:25.307Z,101315.47
2022-09-06T15:08:58.413Z,101311.81
2022-09-06T15:11:32.225Z,101310.22
2022-09-06T15:13:59.916Z,101305.59
2022-09-06T15:16:29.860Z,101305.94
2022-09-06T15:18:57.866Z,101304.00
2022-09-06T15:21:25.774Z,101314.13
2022-09-06T15:23:54.545Z,101308.69
2022-09-06T15:26:22.820Z,101316.59
2022-09-06T15:28:50.575Z,101319.94
2022-09-06T15:31:19.434Z,101316.84
2022-09-06T15:33:48.893Z,101315.47
2022-09-06T15:36:17.298Z,101301.59
2022-09-06T15:38:47.383Z,101306.41
2022-09-06T15:41:17.484Z,101299.91
2022-09-06T15:43:47.305Z,101306.88
2022-09-06T15:46:15.598Z,101300.22
2022-09-06T15:48:44.870Z,101301.06
2022-09-06T15:51:16.070Z,101299.81
2022-09-06T15:53:43.785Z,101300.63
2022-09-06T15:56:13.590Z,101298.22
2022-09-06T15:58:41.340Z,101296.03
2022-09-06T16:01:10.235Z,101298.97
2022-09-06T16:03:39.377Z,101285.75
2022-09-06T16:08:58.356Z,101283.88
2022-09-06T16:11:26.079Z,101278.44
2022-09-06T16:13:54.121Z,101271.91
2022-09-06T16:16:22.676Z,101244.09
2022-09-06T16:18:52.069Z,101275.03
2022-09-06T16:21:23.826Z,101270.72
2022-09-06T16:23:54.872Z,101263.50
2022-09-06T16:26:23.598Z,101267.91
2022-09-06T16:28:52.899Z,101265.94
2022-09-06T16:31:22.134Z,101272.78
2022-09-06T16:33:50.305Z,101270.81
2022-09-06T16:36:19.489Z,101265.09
2022-09-06T16:38:48.003Z,101234.75
2022-09-06T16:41:19.174Z,101261.75
2022-09-06T16:43:47.854Z,101242.66
2022-09-06T16:46:15.771Z,101266.28
2022-09-06T16:48:43.335Z,101265.28
2022-09-06T16:51:13.939Z,101248.16
2022-09-06T16:53:43.451Z,101259.75
2022-09-06T16:56:12.442Z,101257.44
2022-09-06T16:58:41.793Z,101268.50
2022-09-06T17:01:09.958Z,101266.94
2022-09-06T17:03:38.389Z,101261.91
2022-09-06T17:06:07.113Z,101268.94
2022-09-06T17:08:36.271Z,101266.28
2022-09-06T17:11:04.361Z,101262.53
2022-09-06T17:13:33.060Z,101269.28
2022-09-06T17:16:22.322Z,101243.97
2022-09-06T17:18:52.542Z,101276.03
2022-09-06T17:21:21.217Z,101265.91
2022-09-06T17:23:49.463Z,101266.75
2022-09-06T17:26:17.289Z,101271.84
2022-09-06T17:28:44.829Z,101265.41
2022-09-06T17:31:13.864Z,101263.00
2022-09-06T17:33:41.654Z,101275.59
2022-09-06T17:36:11.587Z,101279.09
2022-09-06T17:38:39.576Z,101260.13
2022-09-06T17:41:07.773Z,101205.56
2022-09-06T17:43:36.564Z,101264.41
2022-09-06T17:46:04.490Z,101245.94
2022-09-06T17:48:33.484Z,101252.63
2022-09-06T17:51:06.855Z,101255.31
2022-09-06T17:53:34.481Z,101257.47
2022-09-06T17:56:04.971Z,101261.75
2022-09-06T17:58:32.956Z,101229.63
2022-09-06T18:01:03.246Z,101259.84
2022-09-06T18:03:31.866Z,101258.22
2022-09-06T18:06:05.397Z,101261.44
2022-09-06T18:08:32.986Z,101260.09
2022-09-06T18:11:00.772Z,101257.72
2022-09-06T18:13:28.369Z,101263.03
2022-09-06T18:15:55.958Z,101262.75
2022-09-06T18:18:23.557Z,101261.41
2022-09-06T18:20:51.814Z,101267.53
2022-09-06T18:23:20.659Z,101261.94
2022-09-06T18:25:56.845Z,101240.75
2022-09-06T18:28:25.241Z,101257.63
2022-09-06T18:30:53.973Z,101256.31
2022-09-06T18:33:23.667Z,101246.63
2022-09-06T18:35:51.853Z,101250.88
2022-09-06T18:38:20.663Z,101249.28
2022-09-06T18:40:52.197Z,101243.16
2022-09-06T18:43:20.215Z,101245.00
2022-09-06T18:45:47.794Z,101240.69
2022-09-06T18:48:15.843Z,101249.25
2022-09-06T18:50:43.467Z,101250.81
2022-09-06T18:53:11.515Z,101258.28
2022-09-06T18:55:42.602Z,101250.47
2022-09-06T18:58:10.810Z,101235.22
2022-09-06T19:00:38.770Z,101248.50
2022-09-06T19:03:06.817Z,101238.09
2022-09-06T19:05:35.590Z,101238.81
2022-09-06T19:08:03.785Z,101234.25
2022-09-06T19:10:31.760Z,101221.66
2022-09-06T19:13:00.682Z,101228.31
2022-09-06T19:15:28.454Z,101219.16
2022-09-06T19:17:56.958Z,101213.53
2022-09-06T19:20:24.519Z,101215.66
2022-09-06T19:22:52.238Z,101213.50
2022-09-06T19:25:20.191Z,101187.44
2022-09-06T19:27:48.934Z,101189.88
2022-09-06T19:30:19.757Z,101206.97
2022-09-06T19:32:47.600Z,101203.94
2022-09-06T19:35:15.310Z,101138.25
2022-09-06T19:37:43.095Z,101188.09
2022-09-06T19:40:11.541Z,101197.94
2022-09-06T19:42:39.373Z,101187.78
2022-09-06T19:45:09.615Z,101179.72
2022-09-06T19:47:38.619Z,101165.78
2022-09-06T19:50:08.031Z,101158.03
2022-09-06T19:52:35.652Z,101160.69
2022-09-06T19:55:03.336Z,101160.06
2022-09-06T19:57:30.966Z,101157.97
2022-09-06T19:59:58.517Z,101158.69
2022-09-06T20:02:26.271Z,101161.28
2022-09-06T20:04:55.409Z,101160.66
2022-09-06T20:07:22.938Z,101154.31
2022-09-06T20:09:52.524Z,101142.38
2022-09-06T20:12:20.607Z,101142.38
2022-09-06T20:14:48.168Z,101130.34
2022-09-06T20:17:33.223Z,101114.84
2022-09-06T20:20:04.039Z,101088.44
2022-09-06T20:22:31.974Z,101090.09
2022-09-06T20:24:59.727Z,101081.00
2022-09-06T20:27:27.428Z,101075.41
2022-09-06T20:29:55.007Z,101073.25
2022-09-06T20:32:22.606Z,101041.09
2022-09-06T20:34:50.206Z,101125.03
2022-09-06T20:37:19.276Z,101164.25
2022-09-06T20:39:46.892Z,101173.31
2022-09-06T20:42:14.472Z,101145.16
2022-09-06T20:44:42.028Z,101108.91
2022-09-06T20:47:09.932Z,101087.28
2022-09-06T20:49:37.671Z,101076.34
2022-09-06T20:52:05.370Z,101063.19
2022-09-06T20:54:34.379Z,101062.63
2022-09-06T20:57:01.989Z,101071.91
2022-09-06T20:59:29.537Z,101087.31
2022-09-06T21:01:57.103Z,101091.19
2022-09-06T21:04:26.473Z,101089.81
2022-09-06T21:06:54.782Z,101085.25
2022-09-06T21:09:22.370Z,101077.19
2022-09-06T21:11:52.598Z,101068.09
2022-09-06T21:14:20.266Z,101064.97
2022-09-06T21:16:47.932Z,101083.94
2022-09-06T21:19:16.200Z,101067.94
2022-09-06T21:21:44.557Z,101065.75
2022-09-06T21:24:12.186Z,101063.31
2022-09-06T21:26:40.849Z,101043.78
2022-09-06T21:29:09.925Z,101056.53
2022-09-06T21:31:38.333Z,101036.94
2022-09-06T21:34:07.169Z,101042.00
2022-09-06T21:36:39.045Z,101053.97
2022-09-06T21:39:09.527Z,101051.81
2022-09-06T21:41:38.544Z,101076.13
2022-09-06T21:44:08.187Z,101082.50
2022-09-06T21:46:38.758Z,101092.84
2022-09-06T21:49:08.839Z,101107.03
2022-09-06T21:51:37.119Z,101100.81
2022-09-06T21:54:05.819Z,101117.25
2022-09-06T21:56:35.790Z,101135.25
2022-09-06T21:59:03.725Z,101135.84
2022-09-06T22:01:33.985Z,101156.72
2022-09-06T22:04:03.965Z,101164.66
2022-09-06T22:06:33.330Z,101115.88
2022-09-06T22:09:02.929Z,101182.44
2022-09-06T22:11:32.955Z,101190.03
2022-09-06T22:14:01.536Z,101194.53
2022-09-06T22:16:31.087Z,101196.03
2022-09-06T22:18:58.990Z,101193.72
2022-09-06T22:21:28.020Z,101194.41
2022-09-06T22:23:57.696Z,101203.41
2022-09-06T22:26:26.430Z,101219.56
2022-09-06T22:28:55.214Z,101267.97
2022-09-06T22:31:23.581Z,101285.31
2022-09-06T22:33:51.160Z,101368.09
2022-09-06T22:36:18.790Z,101417.94
2022-09-06T22:38:47.727Z,101426.41
2022-09-06T22:41:15.203Z,101431.06
2022-09-06T22:43:42.724Z,101403.09
2022-09-06T22:46:11.124Z,101337.19
2022-09-06T22:48:38.720Z,101344.09
2022-09-06T22:51:07.093Z,101376.88
2022-09-06T22:53:36.227Z,101388.09
2022-09-06T22:56:05.210Z,101358.66
2022-09-06T22:58:33.675Z,101325.22
2022-09-06T23:01:06.344Z,101314.34
2022-09-06T23:03:35.165Z,101320.34
2022-09-06T23:06:02.864Z,101344.44
2022-09-06T23:08:30.330Z,101355.53
2022-09-06T23:10:57.745Z,101326.22
2022-09-06T23:13:26.574Z,101301.38
2022-09-06T23:15:54.090Z,101288.75
2022-09-06T23:18:21.691Z,101275.91
2022-09-06T23:20:49.082Z,101276.56
2022-09-06T23:23:16.441Z,101258.28
2022-09-06T23:25:44.050Z,101247.47
2022-09-06T23:28:11.483Z,101234.56
2022-09-06T23:30:40.330Z,101178.28
2022-09-06T23:33:07.692Z,101232.94
2022-09-06T23:35:35.120Z,101239.75
2022-09-06T23:38:02.505Z,101250.34
2022-09-06T23:40:29.909Z,101253.34
2022-09-06T23:42:57.279Z,101258.03
2022-09-06T23:45:24.669Z,101260.25
2022-09-06T23:47:53.389Z,101258.78
2022-09-06T23:50:20.900Z,101265.69
2022-09-06T23:52:48.567Z,101268.91
2022-09-06T23:55:16.104Z,101267.50
2022-09-06T23:57:43.497Z,101259.97
